createdAt,value
2018-04-08T00:00:55.479Z,14.60
2018-04-08T00:03:23.751Z,14.13
2018-04-08T00:05:52.179Z,12.60
2018-04-08T00:08:19.697Z,12.30
2018-04-08T00:10:47.980Z,14.07
2018-04-08T00:13:15.537Z,15.20
2018-04-08T00:15:43.063Z,12.03
2018-04-08T00:18:11.382Z,12.00
2018-04-08T00:20:38.899Z,11.93
2018-04-08T00:23:06.467Z,11.50
2018-04-08T00:25:33.984Z,12.97
2018-04-08T00:28:01.523Z,11.73
2018-04-08T00:30:29.145Z,12.03
2018-04-08T00:32:56.657Z,11.47
2018-04-08T00:35:24.191Z,12.00
2018-04-08T00:37:51.703Z,12.80
2018-04-08T00:40:19.210Z,12.53
2018-04-08T00:42:47.306Z,12.07
2018-04-08T00:45:15.075Z,11.23
2018-04-08T00:47:42.732Z,13.57
2018-04-08T00:50:10.329Z,13.07
2018-04-08T00:52:37.836Z,14.37
2018-04-08T00:55:05.365Z,14.37
2018-04-08T00:57:33.893Z,14.03
2018-04-08T01:00:01.423Z,15.10
2018-04-08T01:02:29.003Z,14.00
2018-04-08T01:04:56.503Z,14.40
2018-04-08T01:07:24.023Z,13.93
2018-04-08T01:09:51.524Z,13.77
2018-04-08T01:12:20.564Z,13.77
2018-04-08T01:14:48.081Z,11.83
2018-04-08T01:17:15.904Z,11.97
2018-04-08T01:19:43.419Z,12.50
2018-04-08T01:22:11.690Z,12.87
2018-04-08T01:24:39.992Z,11.57
2018-04-08T01:27:07.504Z,11.67
2018-04-08T01:29:35.013Z,12.80
2018-04-08T01:32:02.688Z,12.67
2018-04-08T01:34:30.280Z,12.57
2018-04-08T01:36:57.807Z,13.97
2018-04-08T01:39:25.585Z,13.87
2018-04-08T01:41:53.092Z,13.80
2018-04-08T01:44:21.379Z,14.07
2018-04-08T01:46:48.890Z,13.93
2018-04-08T01:49:16.525Z,13.27
2018-04-08T01:51:44.087Z,11.90
2018-04-08T01:54:12.577Z,11.90
2018-04-08T01:56:40.095Z,12.20
2018-04-08T01:59:08.366Z,11.43
2018-04-08T02:01:36.664Z,13.20
2018-04-08T02:04:04.176Z,13.10
2018-04-08T02:06:32.503Z,12.07
2018-04-08T02:09:00.054Z,13.43
2018-04-08T02:11:27.561Z,13.07
2018-04-08T02:13:55.099Z,13.53
2018-04-08T02:16:22.600Z,12.60
2018-04-08T02:18:50.867Z,13.23
2018-04-08T02:21:18.383Z,10.90
2018-04-08T02:23:45.879Z,11.17
2018-04-08T02:26:13.616Z,13.00
2018-04-08T02:28:41.144Z,13.60
2018-04-08T02:31:08.653Z,13.33
2018-04-08T02:33:36.192Z,13.50
2018-04-08T02:36:03.746Z,14.77
2018-04-08T02:38:31.325Z,13.33
2018-04-08T02:40:58.843Z,12.43
2018-04-08T02:43:26.358Z,11.70
2018-04-08T02:45:53.906Z,14.40
2018-04-08T02:48:21.468Z,14.03
2018-04-08T02:50:50.028Z,14.23
2018-04-08T02:53:17.563Z,13.93
2018-04-08T02:55:45.087Z,12.87
2018-04-08T02:58:13.535Z,12.87
2018-04-08T03:00:41.124Z,13.43
2018-04-08T03:03:08.637Z,12.87
2018-04-08T03:05:36.162Z,11.90
2018-04-08T03:08:04.435Z,12.97
2018-04-08T03:10:32.742Z,11.50
2018-04-08T03:13:00.264Z,11.43
2018-04-08T03:15:28.543Z,11.03
2018-04-08T03:17:56.831Z,11.33
2018-04-08T03:20:24.327Z,11.77
2018-04-08T03:22:51.870Z,11.60
2018-04-08T03:25:19.419Z,13.20
2018-04-08T03:27:46.932Z,13.03
2018-04-08T03:30:14.453Z,13.07
2018-04-08T03:32:42.040Z,12.80
2018-04-08T03:35:09.577Z,12.90
2018-04-08T03:37:37.087Z,11.03
2018-04-08T03:40:05.350Z,10.87
2018-04-08T03:42:33.280Z,12.37
2018-04-08T03:45:00.779Z,11.90
2018-04-08T03:47:28.270Z,11.10
2018-04-08T03:49:56.064Z,12.60
2018-04-08T03:52:23.823Z,11.90
2018-04-08T03:54:51.458Z,12.70
2018-04-08T03:57:18.986Z,11.53
2018-04-08T03:59:46.496Z,11.97
2018-04-08T04:02:13.995Z,11.23
2018-04-08T04:04:41.611Z,11.73
2018-04-08T04:07:09.115Z,11.03
2018-04-08T04:09:37.387Z,10.50
2018-04-08T04:12:05.700Z,12.07
2018-04-08T04:14:33.213Z,12.35
2018-04-08T04:17:00.935Z,11.60
2018-04-08T04:19:40.322Z,11.97
2018-04-08T04:22:19.788Z,12.13
2018-04-08T04:25:00.127Z,12.33
2018-04-08T04:27:28.412Z,12.30
2018-04-08T04:29:57.056Z,11.10
2018-04-08T04:32:24.593Z,13.07
2018-04-08T04:34:52.101Z,12.43
2018-04-08T04:37:19.606Z,12.93
2018-04-08T04:39:47.135Z,12.07
2018-04-08T04:42:15.420Z,12.33
2018-04-08T04:44:43.690Z,11.00
2018-04-08T04:47:11.975Z,12.10
2018-04-08T04:49:40.247Z,13.40
2018-04-08T04:52:08.600Z,12.30
2018-04-08T04:54:37.646Z,12.37
2018-04-08T04:57:05.156Z,13.07
2018-04-08T04:59:32.672Z,11.93
2018-04-08T05:02:00.347Z,13.20
2018-04-08T05:04:27.842Z,13.90
2018-04-08T05:06:56.118Z,12.23
2018-04-08T05:09:23.690Z,13.37
2018-04-08T05:11:51.971Z,13.25
2018-04-08T05:14:19.476Z,11.45
2018-04-08T05:16:47.003Z,12.50
2018-04-08T05:19:14.520Z,13.10
2018-04-08T05:21:42.852Z,12.03
2018-04-08T05:24:10.391Z,12.20
2018-04-08T05:26:37.916Z,11.65
2018-04-08T05:29:06.193Z,12.23
2018-04-08T05:31:33.724Z,12.15
2018-04-08T05:34:01.248Z,11.70
2018-04-08T05:36:28.761Z,11.75
2018-04-08T05:38:56.295Z,10.95
2018-04-08T05:41:23.814Z,10.95
2018-04-08T05:43:51.618Z,10.85
2018-04-08T05:46:19.144Z,10.40
2018-04-08T05:48:47.039Z,9.80
2018-04-08T05:51:14.544Z,11.13
2018-04-08T05:53:42.850Z,522.30
2018-04-08T05:56:10.369Z,938.23
2018-04-08T05:58:38.642Z,638.03
2018-04-08T06:01:06.932Z,404.43
2018-04-08T06:03:34.434Z,146.00
2018-04-08T06:06:02.161Z,68.70
2018-04-08T06:08:30.459Z,61.87
2018-04-08T06:10:57.975Z,999.90
2018-04-08T06:13:26.532Z,999.90
2018-04-08T06:15:54.191Z,999.90
2018-04-08T06:18:21.766Z,915.90
2018-04-08T06:20:49.320Z,867.33
2018-04-08T06:23:16.856Z,875.23
2018-04-08T06:25:44.364Z,689.23
2018-04-08T06:28:12.676Z,456.33
2018-04-08T06:30:40.208Z,354.93
2018-04-08T06:33:08.490Z,257.67
2018-04-08T06:35:36.962Z,125.77
2018-04-08T06:38:04.575Z,47.43
2018-04-08T06:40:32.071Z,33.53
2018-04-08T06:42:59.586Z,29.83
2018-04-08T06:45:27.115Z,25.97
2018-04-08T06:47:55.390Z,18.73
2018-04-08T06:50:23.656Z,16.97
2018-04-08T06:52:51.955Z,16.30
2018-04-08T06:55:19.463Z,14.07
2018-04-08T06:57:46.995Z,14.83
2018-04-08T07:00:14.771Z,14.53
2018-04-08T07:02:42.277Z,13.70
2018-04-08T07:05:10.550Z,14.23
2018-04-08T07:07:38.835Z,13.77
2018-04-08T07:10:07.109Z,15.17
2018-04-08T07:12:35.386Z,15.87
2018-04-08T07:15:03.675Z,17.60
2018-04-08T07:17:31.185Z,15.93
2018-04-08T07:19:58.692Z,15.57
2018-04-08T07:22:26.686Z,14.73
2018-04-08T07:24:54.216Z,14.10
2018-04-08T07:27:22.547Z,13.63
2018-04-08T07:29:50.502Z,13.53
2018-04-08T07:32:18.693Z,14.30
2018-04-08T07:34:46.637Z,14.00
2018-04-08T07:37:14.838Z,13.67
2018-04-08T07:39:43.008Z,12.57
2018-04-08T07:42:11.120Z,14.90
2018-04-08T07:44:39.426Z,14.60
2018-04-08T07:47:07.126Z,11.33
2018-04-08T07:49:35.431Z,12.97
2018-04-08T07:52:03.780Z,13.23
2018-04-08T07:54:31.340Z,12.83
2018-04-08T07:56:58.840Z,13.30
2018-04-08T07:59:26.371Z,13.13
2018-04-08T08:01:54.195Z,13.87
2018-04-08T08:04:21.707Z,15.07
2018-04-08T08:06:49.999Z,15.90
2018-04-08T08:09:17.563Z,16.70
2018-04-08T08:11:45.092Z,15.53
2018-04-08T08:14:13.519Z,16.13
2018-04-08T08:16:41.164Z,17.40
2018-04-08T08:19:08.686Z,15.33
2018-04-08T08:21:36.987Z,16.07
2018-04-08T08:24:05.931Z,17.20
2018-04-08T08:26:33.536Z,18.13
2018-04-08T08:29:01.845Z,17.90
2018-04-08T08:31:29.348Z,15.53
2018-04-08T08:33:57.072Z,15.90
2018-04-08T08:36:24.699Z,16.73
2018-04-08T08:38:53.086Z,18.53
2018-04-08T08:41:20.706Z,15.50
2018-04-08T08:43:48.235Z,16.63
2018-04-08T08:46:15.786Z,17.93
2018-04-08T08:48:43.558Z,20.00
2018-04-08T08:51:11.079Z,19.03
2018-04-08T08:53:39.701Z,18.00
2018-04-08T08:56:07.234Z,18.10
2018-04-08T08:58:34.770Z,17.83
2018-04-08T09:01:02.469Z,17.20
2018-04-08T09:03:29.972Z,20.10
2018-04-08T09:05:57.501Z,21.93
2018-04-08T09:08:25.018Z,19.43
2018-04-08T09:10:53.294Z,19.27
2018-04-08T09:13:21.579Z,21.40
2018-04-08T09:15:49.863Z,20.73
2018-04-08T09:18:17.377Z,23.10
2018-04-08T09:23:52.352Z,17.70
2018-04-08T09:26:20.700Z,21.63
2018-04-08T09:28:48.202Z,20.63
2018-04-08T09:31:15.711Z,19.87
2018-04-08T09:33:43.241Z,19.87
2018-04-08T09:36:10.778Z,19.90
2018-04-08T09:38:38.280Z,18.57
2018-04-08T09:41:05.828Z,20.53
2018-04-08T09:43:33.339Z,21.30
2018-04-08T09:46:01.616Z,29.77
2018-04-08T09:48:29.983Z,76.30
2018-04-08T09:50:58.305Z,40.87
2018-04-08T09:53:26.542Z,37.40
2018-04-08T09:55:55.625Z,32.73
2018-04-08T09:58:24.599Z,27.97
2018-04-08T10:03:51.008Z,30.37
2018-04-08T10:06:18.588Z,27.70
2018-04-08T10:08:46.092Z,26.63
2018-04-08T10:11:13.593Z,25.40
2018-04-08T10:13:41.117Z,27.10
2018-04-08T10:16:09.425Z,25.47
2018-04-08T10:18:36.939Z,25.67
2018-04-08T10:21:04.804Z,22.10
2018-04-08T10:23:32.415Z,24.10
2018-04-08T10:25:59.919Z,25.87
2018-04-08T10:28:27.447Z,21.37
2018-04-08T10:30:54.963Z,22.53
2018-04-08T10:33:23.225Z,27.13
2018-04-08T10:35:52.600Z,25.17
2018-04-08T10:38:20.099Z,25.37
2018-04-08T10:40:48.734Z,23.53
2018-04-08T10:43:16.269Z,20.70
2018-04-08T10:45:43.777Z,20.00
2018-04-08T10:48:12.192Z,23.37
2018-04-08T10:50:39.744Z,22.63
2018-04-08T10:53:07.264Z,32.20
2018-04-08T10:55:35.107Z,28.40
2018-04-08T10:58:03.681Z,40.13
2018-04-08T11:00:31.391Z,29.13
2018-04-08T11:02:59.731Z,40.57
2018-04-08T11:05:27.316Z,52.00
2018-04-08T11:07:54.825Z,41.87
2018-04-08T11:10:22.333Z,39.87
2018-04-08T11:12:51.390Z,36.10
2018-04-08T11:15:19.127Z,37.67
2018-04-08T11:17:47.471Z,36.70
2018-04-08T11:20:15.615Z,30.10
2018-04-08T11:22:43.173Z,26.80
2018-04-08T11:25:10.765Z,24.93
2018-04-08T11:27:39.113Z,24.80
2018-04-08T11:30:06.632Z,24.47
2018-04-08T11:32:34.929Z,21.20
2018-04-08T11:35:03.533Z,20.43
2018-04-08T11:37:31.043Z,20.30
2018-04-08T11:39:59.356Z,17.63
2018-04-08T11:42:26.927Z,18.90
2018-04-08T11:44:54.538Z,17.43
2018-04-08T11:47:22.820Z,16.80
2018-04-08T11:49:51.447Z,16.77
2018-04-08T11:52:18.968Z,16.53
2018-04-08T11:54:47.254Z,13.90
2018-04-08T11:57:17.000Z,15.57
2018-04-08T11:59:44.528Z,15.10
2018-04-08T12:02:12.044Z,14.67
2018-04-08T12:04:39.730Z,14.60
2018-04-08T12:07:08.006Z,15.73
2018-04-08T12:09:36.289Z,14.07
2018-04-08T12:12:04.093Z,14.17
2018-04-08T12:14:31.621Z,15.23
2018-04-08T12:16:59.193Z,14.90
2018-04-08T12:19:26.729Z,15.57
2018-04-08T12:21:55.021Z,14.90
2018-04-08T12:24:23.021Z,15.50
2018-04-08T12:26:54.817Z,14.47
2018-04-08T12:29:22.406Z,13.87
2018-04-08T12:31:49.925Z,12.90
2018-04-08T12:34:17.465Z,12.50
2018-04-08T12:36:45.247Z,14.07
2018-04-08T12:39:12.867Z,13.23
2018-04-08T12:41:40.648Z,13.97
2018-04-08T12:44:08.364Z,14.87
2018-04-08T12:46:36.634Z,12.40
2018-04-08T12:49:05.175Z,12.57
2018-04-08T12:51:32.695Z,12.77
2018-04-08T12:54:00.211Z,13.23
2018-04-08T12:56:27.739Z,11.83
2018-04-08T12:58:55.244Z,12.17
2018-04-08T13:01:23.522Z,12.23
2018-04-08T13:03:51.828Z,11.90
2018-04-08T13:06:19.354Z,13.10
2018-04-08T13:08:47.635Z,11.80
2018-04-08T13:11:15.935Z,12.03
2018-04-08T13:13:43.444Z,11.17
2018-04-08T13:16:10.943Z,12.50
2018-04-08T13:18:38.475Z,12.17
2018-04-08T13:21:06.085Z,11.60
2018-04-08T13:23:33.596Z,13.63
2018-04-08T13:26:01.162Z,12.57
2018-04-08T13:28:29.435Z,12.93
2018-04-08T13:30:57.707Z,12.50
2018-04-08T13:33:26.012Z,11.30
2018-04-08T13:35:53.526Z,12.97
2018-04-08T13:38:21.085Z,10.97
2018-04-08T13:40:48.610Z,10.63
2018-04-08T13:43:16.119Z,10.70
2018-04-08T13:45:44.395Z,11.83
2018-04-08T13:48:11.926Z,10.77
2018-04-08T13:50:39.433Z,11.57
2018-04-08T13:53:06.950Z,10.43
2018-04-08T13:55:34.483Z,10.43
2018-04-08T13:58:01.998Z,10.20
2018-04-08T14:00:30.279Z,10.27
2018-04-08T14:02:57.826Z,8.93
2018-04-08T14:05:26.150Z,9.90
2018-04-08T14:07:53.664Z,10.53
2018-04-08T14:10:21.198Z,10.10
2018-04-08T14:12:48.694Z,10.50
2018-04-08T14:15:16.958Z,9.90
2018-04-08T14:17:51.639Z,10.20
2018-04-08T14:20:19.147Z,9.57
2018-04-08T14:22:47.495Z,9.53
2018-04-08T14:25:15.137Z,8.07
2018-04-08T14:27:42.896Z,9.20
2018-04-08T14:30:10.424Z,8.40
2018-04-08T14:32:38.185Z,7.93
2018-04-08T14:35:06.446Z,7.50
2018-04-08T14:37:34.707Z,7.13
2018-04-08T14:40:02.284Z,6.53
2018-04-08T14:42:30.543Z,5.90
2018-04-08T14:44:58.053Z,5.77
2018-04-08T14:47:25.619Z,5.87
2018-04-08T14:49:53.118Z,5.60
2018-04-08T14:52:20.632Z,5.40
2018-04-08T14:54:48.421Z,5.53
2018-04-08T14:57:15.922Z,5.10
2018-04-08T14:59:44.339Z,5.40
2018-04-08T15:02:11.948Z,5.33
2018-04-08T15:04:39.474Z,5.20
2018-04-08T15:07:06.983Z,5.00
2018-04-08T15:09:34.512Z,4.63
2018-04-08T15:12:02.022Z,4.50
2018-04-08T15:14:29.622Z,4.93
2018-04-08T15:16:57.176Z,4.50
2018-04-08T15:19:24.675Z,4.40
2018-04-08T15:21:52.943Z,4.53
2018-04-08T15:24:21.258Z,4.47
2018-04-08T15:26:48.754Z,4.03
2018-04-08T15:29:17.024Z,4.50
2018-04-08T15:31:44.550Z,4.07
2018-04-08T15:34:12.795Z,4.40
2018-04-08T15:36:41.062Z,3.80
2018-04-08T15:39:09.359Z,4.20
2018-04-08T15:41:36.879Z,4.10
2018-04-08T15:44:04.378Z,3.60
2018-04-08T15:46:31.911Z,3.73
2018-04-08T15:49:00.174Z,4.13
2018-04-08T15:51:27.698Z,4.23
2018-04-08T15:53:55.231Z,4.10
2018-04-08T15:56:23.025Z,4.57
2018-04-08T15:58:50.889Z,4.73
2018-04-08T16:01:18.652Z,5.10
2018-04-08T16:03:46.306Z,5.43
2018-04-08T16:06:14.622Z,5.43
2018-04-08T16:08:42.141Z,5.27
2018-04-08T16:11:09.641Z,4.90
2018-04-08T16:13:38.650Z,5.00
2018-04-08T16:16:07.216Z,5.00
2018-04-08T16:18:34.711Z,4.80
2018-04-08T16:21:02.214Z,5.70
2018-04-08T16:23:29.784Z,6.40
2018-04-08T16:25:58.051Z,5.60
2018-04-08T16:28:25.790Z,6.50
2018-04-08T16:30:53.658Z,5.80
2018-04-08T16:33:21.187Z,4.97
2018-04-08T16:35:49.638Z,5.07
2018-04-08T16:38:17.573Z,5.90
2018-04-08T16:40:45.205Z,5.03
2018-04-08T16:43:12.771Z,5.77
2018-04-08T16:45:40.307Z,4.83
2018-04-08T16:48:08.796Z,4.80
2018-04-08T16:50:37.150Z,4.70
2018-04-08T16:53:04.670Z,6.23
2018-04-08T16:55:32.181Z,6.10
2018-04-08T16:58:00.441Z,4.80
2018-04-08T17:00:28.056Z,4.90
2018-04-08T17:02:55.557Z,5.40
2018-04-08T17:05:23.178Z,5.10
2018-04-08T17:07:50.695Z,4.77
2018-04-08T17:10:18.599Z,5.17
2018-04-08T17:12:46.102Z,5.27
2018-04-08T17:15:13.943Z,4.50
2018-04-08T17:17:41.459Z,4.50
2018-04-08T17:20:09.556Z,4.57
2018-04-08T17:22:37.167Z,4.83
2018-04-08T17:25:05.429Z,4.63
2018-04-08T17:27:32.926Z,5.00
2018-04-08T17:30:00.442Z,5.17
2018-04-08T17:32:28.388Z,4.63
2018-04-08T17:34:55.908Z,5.30
2018-04-08T17:37:23.451Z,4.80
2018-04-08T17:39:51.756Z,5.40
2018-04-08T17:42:19.262Z,6.23
2018-04-08T17:44:46.779Z,7.10
2018-04-08T17:47:14.554Z,9.50
2018-04-08T17:49:42.092Z,7.40
2018-04-08T17:52:09.893Z,7.13
2018-04-08T17:54:37.641Z,8.13
2018-04-08T17:57:05.302Z,7.97
2018-04-08T17:59:32.976Z,11.27
2018-04-08T18:02:00.853Z,8.33
2018-04-08T18:04:28.399Z,12.53
2018-04-08T18:06:55.920Z,10.77
2018-04-08T18:09:23.485Z,10.00
2018-04-08T18:11:51.272Z,13.90
2018-04-08T18:14:19.660Z,12.90
2018-04-08T18:16:47.191Z,14.03
2018-04-08T18:19:14.704Z,11.27
2018-04-08T18:21:42.267Z,16.33
2018-04-08T18:24:09.777Z,11.33
2018-04-08T18:26:37.984Z,10.80
2018-04-08T18:29:06.556Z,14.83
2018-04-08T18:31:34.096Z,13.30
2018-04-08T18:34:02.684Z,15.63
2018-04-08T18:36:30.223Z,11.87
2018-04-08T18:38:57.735Z,10.17
2018-04-08T18:41:25.268Z,10.80
2018-04-08T18:43:52.970Z,13.30
2018-04-08T18:46:21.896Z,10.27
2018-04-08T18:48:49.789Z,13.90
2018-04-08T18:51:17.741Z,10.47
2018-04-08T18:53:45.440Z,10.93
2018-04-08T18:56:13.015Z,10.50
2018-04-08T18:58:42.169Z,9.73
2018-04-08T19:01:10.127Z,12.17
2018-04-08T19:03:37.933Z,10.30
2018-04-08T19:06:06.020Z,9.07
2018-04-08T19:08:34.628Z,10.87
2018-04-08T19:11:03.123Z,9.90
2018-04-08T19:13:30.692Z,9.70
2018-04-08T19:15:58.596Z,9.57
2018-04-08T19:18:28.396Z,9.13
2018-04-08T19:20:56.669Z,9.27
2018-04-08T19:23:24.296Z,9.23
2018-04-08T19:25:53.520Z,9.80
2018-04-08T19:28:21.042Z,7.90
2018-04-08T19:30:49.421Z,8.63
2018-04-08T19:33:17.447Z,11.07
2018-04-08T19:35:45.810Z,11.00
2018-04-08T19:38:14.419Z,8.40
2018-04-08T19:40:42.153Z,9.90
2018-04-08T19:43:09.716Z,10.63
2018-04-08T19:45:37.589Z,9.17
2018-04-08T19:48:05.455Z,9.00
2018-04-08T19:50:33.309Z,10.67
2018-04-08T19:53:01.998Z,10.60
2018-04-08T19:55:31.223Z,9.77
2018-04-08T19:57:58.880Z,9.30
2018-04-08T20:00:26.384Z,9.67
2018-04-08T20:02:53.892Z,9.73
2018-04-08T20:05:21.501Z,9.43
2018-04-08T20:07:49.003Z,8.43
2018-04-08T20:10:16.773Z,10.33
2018-04-08T20:12:44.350Z,10.30
2018-04-08T20:15:12.286Z,9.83
2018-04-08T20:17:39.785Z,9.93
2018-04-08T20:20:07.426Z,9.03
2018-04-08T20:22:34.965Z,8.40
2018-04-08T20:25:02.556Z,11.97
2018-04-08T20:27:30.977Z,8.60
2018-04-08T20:29:59.216Z,15.83
2018-04-08T20:32:26.818Z,12.00
2018-04-08T20:34:54.394Z,10.23
2018-04-08T20:37:21.897Z,9.60
2018-04-08T20:39:49.402Z,9.77
2018-04-08T20:42:16.953Z,10.07
2018-04-08T20:44:44.477Z,12.73
2018-04-08T20:47:12.090Z,11.30
2018-04-08T20:49:39.611Z,13.30
2018-04-08T20:52:07.889Z,10.87
2018-04-08T20:54:36.156Z,11.17
2018-04-08T20:57:04.456Z,10.93
2018-04-08T20:59:31.960Z,9.47
2018-04-08T21:01:59.808Z,11.07
2018-04-08T21:04:27.356Z,9.97
2018-04-08T21:06:54.857Z,10.43
2018-04-08T21:09:22.375Z,10.13
2018-04-08T21:11:49.928Z,9.77
2018-04-08T21:14:17.427Z,9.77
2018-04-08T21:16:45.050Z,9.30
2018-04-08T21:19:12.589Z,10.50
2018-04-08T21:21:40.140Z,9.50
2018-04-08T21:24:08.407Z,10.93
2018-04-08T21:26:36.699Z,10.67
2018-04-08T21:29:04.227Z,9.50
2018-04-08T21:31:31.729Z,11.47
2018-04-08T21:33:59.250Z,10.60
2018-04-08T21:36:27.070Z,10.93
2018-04-08T21:38:54.563Z,11.27
2018-04-08T21:41:22.089Z,10.83
2018-04-08T21:43:49.595Z,10.17
2018-04-08T21:46:17.854Z,10.03
2018-04-08T21:48:46.151Z,9.30
2018-04-08T21:51:14.463Z,10.43
2018-04-08T21:53:41.968Z,9.97
2018-04-08T21:56:09.504Z,9.80
2018-04-08T21:58:37.006Z,9.67
2018-04-08T22:01:05.356Z,10.07
2018-04-08T22:03:32.891Z,10.50
2018-04-08T22:06:00.400Z,10.23
2018-04-08T22:08:28.679Z,9.47
2018-04-08T22:10:56.976Z,10.40
2018-04-08T22:13:24.491Z,10.37
2018-04-08T22:15:51.992Z,10.23
2018-04-08T22:18:19.533Z,10.00
2018-04-08T22:20:47.795Z,9.53
2018-04-08T22:23:15.300Z,10.37
2018-04-08T22:25:42.916Z,10.60
2018-04-08T22:28:11.186Z,10.23
2018-04-08T22:30:38.683Z,10.80
2018-04-08T22:33:06.206Z,12.03
2018-04-08T22:35:33.800Z,11.60
2018-04-08T22:38:01.294Z,9.00
2018-04-08T22:40:29.247Z,10.00
2018-04-08T22:42:56.750Z,9.57
2018-04-08T22:45:25.231Z,9.60
2018-04-08T22:47:52.859Z,9.87
2018-04-08T22:50:20.359Z,10.07
2018-04-08T22:52:48.624Z,9.03
2018-04-08T22:55:16.143Z,8.80
2018-04-08T22:57:43.640Z,9.70
2018-04-08T23:00:12.186Z,9.60
2018-04-08T23:02:39.703Z,9.13
2018-04-08T23:05:07.974Z,10.53
2018-04-08T23:07:36.242Z,10.97
2018-04-08T23:10:05.498Z,10.13
2018-04-08T23:12:33.004Z,10.67
2018-04-08T23:15:01.271Z,9.67
2018-04-08T23:17:28.791Z,9.00
2018-04-08T23:19:56.387Z,9.10
2018-04-08T23:22:24.665Z,10.17
2018-04-08T23:24:52.184Z,8.73
2018-04-08T23:27:19.700Z,10.27
2018-04-08T23:29:48.009Z,9.60
2018-04-08T23:32:15.533Z,9.87
2018-04-08T23:34:43.812Z,9.50
2018-04-08T23:37:11.612Z,8.70
2018-04-08T23:39:39.136Z,9.50
2018-04-08T23:42:07.407Z,9.43
2018-04-08T23:44:35.658Z,8.50
2018-04-08T23:47:03.494Z,10.73
2018-04-08T23:49:31.047Z,8.43
2018-04-08T23:51:58.552Z,10.57
2018-04-08T23:54:26.475Z,7.87
2018-04-08T23:56:53.982Z,10.37
2018-04-08T23:59:22.238Z,9.73
